»·PEaware :: N973SE L88-KSBP

N973SE :: L88-KSBP

FLIGHT INFORMATION

Flight Status: Arrived
Operator: Privately registered:
United States
More flights under this callsign
Pilot: Stig E. (4778)
Aircraft: PIPER PA-28R-201 ARROW
(P28R)
More flights by this aircraft type
Origin: L88 New Cuyama
United States
Destination: KSBP San Luis Co Regl
United States
More flights between these airports :: More routes between these airports
Route:
File this flight plan on PilotEdge
Remarks:
Altitude:
(Current/Filed)
6,500ft
Speed:
(Current/Filed)
120kts
Departed: 26-Feb-18 05:02 AM
Arrived: 26-Feb-18 05:31 AM
Distance/Time
Traveled:
50nm/0:28
Distance/Time
To Go:
Arrived

Flight Plot

Page will automatically refresh every two minutes.


Map Options




Map Legend


Flown Route
Filed Route
Departure Airport
Arrival Airport
Navaid (VOR, NDB)
Fix

Horizontal Profiles

Position Reports

Time Latitude Longitude Heading Altitude Ground
Speed
26-Feb-18 04:25 34.942886 -119.691101 198 2153ft 0kts
26-Feb-18 04:26 34.942886 -119.691101 198 2153ft 0kts
26-Feb-18 04:27 34.942886 -119.691101 198 2153ft 0kts
26-Feb-18 04:28 34.942886 -119.691101 198 2153ft 0kts
26-Feb-18 04:29 34.942886 -119.691101 198 2153ft 0kts
26-Feb-18 04:30 34.942886 -119.691101 198 2153ft 0kts
26-Feb-18 04:31 34.942886 -119.691101 198 2153ft 0kts
26-Feb-18 04:32 34.942886 -119.691101 198 2153ft 0kts
26-Feb-18 04:33 34.942886 -119.691101 198 2153ft 0kts
26-Feb-18 04:34 34.942886 -119.691101 198 2153ft 0kts
26-Feb-18 04:35 34.942886 -119.691101 198 2153ft 0kts
26-Feb-18 04:36 34.942886 -119.691101 198 2153ft 0kts
26-Feb-18 04:37 34.942886 -119.691101 198 2153ft 0kts
26-Feb-18 04:38 34.942886 -119.691101 198 2153ft 0kts
26-Feb-18 04:39 34.942886 -119.691101 198 2153ft 0kts
26-Feb-18 04:40 34.942886 -119.691101 198 2153ft 0kts
26-Feb-18 04:41 34.942886 -119.691101 198 2153ft 0kts
26-Feb-18 04:42 34.942886 -119.691101 198 2153ft 0kts
26-Feb-18 04:43 34.942886 -119.691101 198 2153ft 0kts
26-Feb-18 04:44 34.942886 -119.691101 198 2153ft 0kts
26-Feb-18 04:45 34.942886 -119.691101 198 2153ft 0kts
26-Feb-18 04:46 34.942886 -119.691101 198 2153ft 0kts
26-Feb-18 04:47 34.942886 -119.691101 198 2153ft 0kts
26-Feb-18 04:48 34.942886 -119.691101 198 2153ft 0kts
26-Feb-18 04:49 34.942886 -119.691101 198 2153ft 0kts
26-Feb-18 04:50 34.942886 -119.691101 198 2153ft 0kts
26-Feb-18 04:51 34.942886 -119.691101 198 2153ft 0kts
26-Feb-18 04:52 34.942886 -119.691101 198 2153ft 0kts
26-Feb-18 04:53 34.942886 -119.691101 198 2153ft 0kts
26-Feb-18 04:54 34.942886 -119.691101 198 2153ft 0kts
26-Feb-18 04:55 34.942886 -119.691101 198 2153ft 0kts
26-Feb-18 04:56 34.942886 -119.691101 198 2153ft 0kts
26-Feb-18 04:57 34.942886 -119.691101 198 2153ft 0kts
26-Feb-18 04:58 34.942886 -119.691101 198 2153ft 0kts
26-Feb-18 04:59 34.942886 -119.691101 198 2153ft 0kts
26-Feb-18 05:00 34.942886 -119.691101 198 2153ft 0kts
26-Feb-18 05:01 34.942886 -119.691101 198 2153ft 0kts
26-Feb-18 05:02 34.942886 -119.691101 198 2153ft 0kts
26-Feb-18 05:03 34.942886 -119.691101 198 2153ft 0kts
26-Feb-18 05:04 34.942886 -119.691101 198 2153ft 0kts
26-Feb-18 05:05 34.942820 -119.691129 198 2153ft 2kts
26-Feb-18 05:06 34.941296 -119.688784 117 2161ft 17kts
26-Feb-18 05:07 34.938797 -119.682729 116 2187ft 21kts
26-Feb-18 05:08 34.937767 -119.680261 295 2197ft 0kts
26-Feb-18 05:09 34.938926 -119.683091 297 2187ft 72kts
26-Feb-18 05:10 34.949619 -119.711255 287 3123ft 101kts
26-Feb-18 05:11 34.955766 -119.744423 282 4019ft 95kts
26-Feb-18 05:12 34.960214 -119.775861 282 4797ft 95kts
26-Feb-18 05:13 34.964331 -119.807532 282 5544ft 93kts
26-Feb-18 05:14 34.962713 -119.838906 275 6286ft 91kts
26-Feb-18 05:15 34.965813 -119.873817 284 6454ft 115kts
26-Feb-18 05:16 34.973688 -119.912253 289 6453ft 117kts
26-Feb-18 05:17 34.983880 -119.949726 292 6453ft 116kts
26-Feb-18 05:18 34.995143 -119.986577 294 6453ft 115kts
26-Feb-18 05:19 35.006879 -120.023054 295 6455ft 115kts
26-Feb-18 05:20 35.018938 -120.059622 296 6459ft 116kts
26-Feb-18 05:21 35.031210 -120.096390 297 6463ft 117kts
26-Feb-18 05:22 35.043706 -120.133626 297 6468ft 119kts
26-Feb-18 05:23 35.043772 -120.176193 272 6283ft 130kts
26-Feb-18 05:24 35.042990 -120.220383 272 5677ft 130kts
26-Feb-18 05:25 35.047630 -120.263294 272 5087ft 127kts
26-Feb-18 05:26 35.051849 -120.306252 272 4497ft 128kts
26-Feb-18 05:27 35.070584 -120.343888 304 3899ft 132kts
26-Feb-18 05:28 35.090722 -120.380645 304 3303ft 129kts
26-Feb-18 05:29 35.110163 -120.417099 304 2705ft 127kts
26-Feb-18 05:30 35.129619 -120.452806 305 2094ft 126kts
26-Feb-18 05:31 35.148785 -120.487266 305 1714ft 113kts
26-Feb-18 05:32 35.166018 -120.517837 307 1716ft 108kts
26-Feb-18 05:33 35.183788 -120.547286 306 1641ft 107kts
26-Feb-18 05:34 35.199371 -120.575397 308 1284ft 89kts
26-Feb-18 05:35 35.212649 -120.597918 308 878ft 75kts
26-Feb-18 05:36 35.224503 -120.618405 310 512ft 72kts
26-Feb-18 05:37 35.235108 -120.637005 308 201ft 46kts
26-Feb-18 05:38 35.237595 -120.639821 6 190ft 0kts
26-Feb-18 05:39 35.238729 -120.639058 270 192ft 0kts
26-Feb-18 05:40 35.238729 -120.639058 270 192ft 0kts
26-Feb-18 05:41 35.238729 -120.639058 270 192ft 0kts
26-Feb-18 05:42 35.238729 -120.639058 270 192ft 0kts
26-Feb-18 05:43 35.238729 -120.639058 270 192ft 0kts

Navigation Log

Ident Type
Flight plan parsing failed, navigation log unavailable